sensor_id;sensor_type;location;lat;lon;timestamp;P1;durP1;ratioP1;P2;durP2;ratioP2
32130;SDS011;18639;50.716;7.086;2022-09-20T00:00:20;8.13;;;1.00;;
32130;SDS011;18639;50.716;7.086;2022-09-20T00:02:46;1.40;;;1.00;;
32130;SDS011;18639;50.716;7.086;2022-09-20T00:05:11;5.07;;;1.00;;
32130;SDS011;18639;50.716;7.086;2022-09-20T00:07:36;6.20;;;1.40;;
32130;SDS011;18639;50.716;7.086;2022-09-20T00:10:01;4.85;;;1.35;;
32130;SDS011;18639;50.716;7.086;2022-09-20T00:12:27;2.85;;;0.90;;
32130;SDS011;18639;50.716;7.086;2022-09-20T00:14:53;1.80;;;1.10;;
32130;SDS011;18639;50.716;7.086;2022-09-20T00:17:18;5.38;;;1.15;;
32130;SDS011;18639;50.716;7.086;2022-09-20T00:19:43;4.05;;;1.27;;
32130;SDS011;18639;50.716;7.086;2022-09-20T00:22:08;6.07;;;1.05;;
32130;SDS011;18639;50.716;7.086;2022-09-20T00:24:34;4.80;;;1.17;;
32130;SDS011;18639;50.716;7.086;2022-09-20T00:27:00;5.78;;;1.52;;
32130;SDS011;18639;50.716;7.086;2022-09-20T00:29:26;4.35;;;1.10;;
32130;SDS011;18639;50.716;7.086;2022-09-20T00:31:52;4.70;;;1.10;;
32130;SDS011;18639;50.716;7.086;2022-09-20T00:34:17;3.42;;;1.20;;
32130;SDS011;18639;50.716;7.086;2022-09-20T00:37:01;3.05;;;1.17;;
32130;SDS011;18639;50.716;7.086;2022-09-20T00:39:26;5.18;;;1.33;;
32130;SDS011;18639;50.716;7.086;2022-09-20T00:41:51;5.22;;;1.38;;
32130;SDS011;18639;50.716;7.086;2022-09-20T00:47:04;4.32;;;1.10;;
32130;SDS011;18639;50.716;7.086;2022-09-20T00:49:36;2.80;;;1.20;;
32130;SDS011;18639;50.716;7.086;2022-09-20T00:52:02;2.80;;;1.20;;
32130;SDS011;18639;50.716;7.086;2022-09-20T00:54:27;9.73;;;1.35;;
32130;SDS011;18639;50.716;7.086;2022-09-20T00:56:55;7.50;;;1.92;;
32130;SDS011;18639;50.716;7.086;2022-09-20T00:59:23;3.22;;;1.20;;
32130;SDS011;18639;50.716;7.086;2022-09-20T01:04:40;3.70;;;1.30;;
32130;SDS011;18639;50.716;7.086;2022-09-20T01:07:07;3.55;;;1.30;;
32130;SDS011;18639;50.716;7.086;2022-09-20T01:09:34;3.17;;;1.05;;
32130;SDS011;18639;50.716;7.086;2022-09-20T01:12:00;3.45;;;1.17;;
32130;SDS011;18639;50.716;7.086;2022-09-20T01:14:29;7.45;;;1.48;;
32130;SDS011;18639;50.716;7.086;2022-09-20T01:16:56;6.22;;;1.55;;
32130;SDS011;18639;50.716;7.086;2022-09-20T01:19:28;5.22;;;1.52;;
32130;SDS011;18639;50.716;7.086;2022-09-20T01:21:59;10.50;;;1.20;;
32130;SDS011;18639;50.716;7.086;2022-09-20T01:24:37;2.33;;;0.93;;
32130;SDS011;18639;50.716;7.086;2022-09-20T01:30:24;2.85;;;1.27;;
32130;SDS011;18639;50.716;7.086;2022-09-20T01:33:08;7.18;;;1.20;;
32130;SDS011;18639;50.716;7.086;2022-09-20T01:35:55;5.20;;;1.40;;
32130;SDS011;18639;50.716;7.086;2022-09-20T01:41:16;7.25;;;1.20;;
32130;SDS011;18639;50.716;7.086;2022-09-20T01:43:50;6.70;;;1.45;;
32130;SDS011;18639;50.716;7.086;2022-09-20T01:48:54;2.55;;;1.33;;
32130;SDS011;18639;50.716;7.086;2022-09-20T01:51:30;3.03;;;1.20;;
32130;SDS011;18639;50.716;7.086;2022-09-20T01:54:19;1.83;;;1.20;;
32130;SDS011;18639;50.716;7.086;2022-09-20T02:05:11;3.55;;;1.45;;
32130;SDS011;18639;50.716;7.086;2022-09-20T02:07:57;9.75;;;1.30;;
32130;SDS011;18639;50.716;7.086;2022-09-20T02:13:26;7.38;;;1.50;;
32130;SDS011;18639;50.716;7.086;2022-09-20T02:27:20;6.90;;;1.42;;
32130;SDS011;18639;50.716;7.086;2022-09-20T02:29:55;2.83;;;1.50;;
32130;SDS011;18639;50.716;7.086;2022-09-20T02:38:32;3.50;;;1.40;;
32130;SDS011;18639;50.716;7.086;2022-09-20T02:43:43;4.05;;;1.50;;
32130;SDS011;18639;50.716;7.086;2022-09-20T02:46:19;7.70;;;1.75;;
32130;SDS011;18639;50.716;7.086;2022-09-20T02:52:16;4.40;;;1.40;;
32130;SDS011;18639;50.716;7.086;2022-09-20T03:00:21;2.35;;;1.40;;
32130;SDS011;18639;50.716;7.086;2022-09-20T03:10:54;3.80;;;1.30;;
32130;SDS011;18639;50.716;7.086;2022-09-20T03:16:56;5.55;;;1.50;;
32130;SDS011;18639;50.716;7.086;2022-09-20T03:24:41;3.40;;;1.02;;
32130;SDS011;18639;50.716;7.086;2022-09-20T03:27:15;3.03;;;1.13;;
32130;SDS011;18639;50.716;7.086;2022-09-20T03:38:54;3.55;;;1.38;;
32130;SDS011;18639;50.716;7.086;2022-09-20T03:41:10;6.88;;;1.10;;
32130;SDS011;18639;50.716;7.086;2022-09-20T03:46:25;2.40;;;1.35;;
32130;SDS011;18639;50.716;7.086;2022-09-20T03:51:28;3.25;;;1.20;;
32130;SDS011;18639;50.716;7.086;2022-09-20T03:54:14;2.28;;;1.20;;
32130;SDS011;18639;50.716;7.086;2022-09-20T03:59:54;2.58;;;1.40;;
32130;SDS011;18639;50.716;7.086;2022-09-20T04:05:37;3.53;;;1.30;;
32130;SDS011;18639;50.716;7.086;2022-09-20T04:10:53;3.20;;;1.20;;
32130;SDS011;18639;50.716;7.086;2022-09-20T04:13:38;4.45;;;1.33;;
32130;SDS011;18639;50.716;7.086;2022-09-20T04:21:45;6.05;;;1.40;;
32130;SDS011;18639;50.716;7.086;2022-09-20T04:24:28;6.68;;;1.67;;
32130;SDS011;18639;50.716;7.086;2022-09-20T04:27:11;5.10;;;1.23;;
32130;SDS011;18639;50.716;7.086;2022-09-20T04:29:43;7.75;;;1.20;;
32130;SDS011;18639;50.716;7.086;2022-09-20T04:32:30;5.13;;;1.30;;
32130;SDS011;18639;50.716;7.086;2022-09-20T04:38:08;8.57;;;1.83;;
32130;SDS011;18639;50.716;7.086;2022-09-20T04:51:41;11.25;;;1.50;;
32130;SDS011;18639;50.716;7.086;2022-09-20T04:54:57;6.07;;;1.75;;
32130;SDS011;18639;50.716;7.086;2022-09-20T05:00:15;3.15;;;1.08;;
32130;SDS011;18639;50.716;7.086;2022-09-20T05:02:49;3.90;;;1.13;;
32130;SDS011;18639;50.716;7.086;2022-09-20T05:11:23;3.25;;;1.55;;
32130;SDS011;18639;50.716;7.086;2022-09-20T05:27:51;3.25;;;1.20;;
32130;SDS011;18639;50.716;7.086;2022-09-20T05:38:48;5.65;;;1.30;;
32130;SDS011;18639;50.716;7.086;2022-09-20T05:44:17;10.73;;;2.00;;
32130;SDS011;18639;50.716;7.086;2022-09-20T05:52:21;2.85;;;1.50;;
32130;SDS011;18639;50.716;7.086;2022-09-20T06:00:36;3.33;;;1.30;;
32130;SDS011;18639;50.716;7.086;2022-09-20T06:06:36;3.60;;;1.75;;
32130;SDS011;18639;50.716;7.086;2022-09-20T06:22:42;2.00;;;1.30;;
32130;SDS011;18639;50.716;7.086;2022-09-20T06:28:04;10.13;;;2.08;;
32130;SDS011;18639;50.716;7.086;2022-09-20T06:30:52;5.97;;;2.03;;
32130;SDS011;18639;50.716;7.086;2022-09-20T06:33:19;6.35;;;2.00;;
32130;SDS011;18639;50.716;7.086;2022-09-20T06:35:48;6.68;;;2.28;;
32130;SDS011;18639;50.716;7.086;2022-09-20T06:41:21;8.93;;;2.40;;
32130;SDS011;18639;50.716;7.086;2022-09-20T06:43:56;7.97;;;2.72;;
32130;SDS011;18639;50.716;7.086;2022-09-20T06:46:25;6.85;;;2.63;;
32130;SDS011;18639;50.716;7.086;2022-09-20T06:48:55;10.40;;;2.50;;
32130;SDS011;18639;50.716;7.086;2022-09-20T06:51:26;6.90;;;3.00;;
32130;SDS011;18639;50.716;7.086;2022-09-20T06:53:53;9.52;;;2.70;;
32130;SDS011;18639;50.716;7.086;2022-09-20T06:56:21;7.72;;;2.78;;
32130;SDS011;18639;50.716;7.086;2022-09-20T06:58:51;7.82;;;3.17;;
32130;SDS011;18639;50.716;7.086;2022-09-20T07:01:17;7.07;;;3.17;;
32130;SDS011;18639;50.716;7.086;2022-09-20T07:03:47;7.88;;;3.78;;
32130;SDS011;18639;50.716;7.086;2022-09-20T07:06:16;6.90;;;3.42;;
32130;SDS011;18639;50.716;7.086;2022-09-20T07:09:01;8.43;;;3.85;;
32130;SDS011;18639;50.716;7.086;2022-09-20T07:11:30;11.48;;;3.85;;
32130;SDS011;18639;50.716;7.086;2022-09-20T07:13:58;11.23;;;3.88;;
32130;SDS011;18639;50.716;7.086;2022-09-20T07:16:23;14.02;;;4.10;;
32130;SDS011;18639;50.716;7.086;2022-09-20T07:18:50;12.20;;;3.70;;
32130;SDS011;18639;50.716;7.086;2022-09-20T07:21:17;12.55;;;4.22;;
32130;SDS011;18639;50.716;7.086;2022-09-20T07:23:44;12.00;;;3.60;;
32130;SDS011;18639;50.716;7.086;2022-09-20T07:26:19;8.38;;;3.78;;
32130;SDS011;18639;50.716;7.086;2022-09-20T07:29:11;12.38;;;3.78;;
32130;SDS011;18639;50.716;7.086;2022-09-20T07:31:36;7.88;;;3.78;;
32130;SDS011;18639;50.716;7.086;2022-09-20T07:34:01;8.63;;;3.63;;
32130;SDS011;18639;50.716;7.086;2022-09-20T07:36:26;10.15;;;3.63;;
32130;SDS011;18639;50.716;7.086;2022-09-20T07:38:53;10.90;;;3.40;;
32130;SDS011;18639;50.716;7.086;2022-09-20T07:41:19;6.28;;;3.47;;
32130;SDS011;18639;50.716;7.086;2022-09-20T07:43:46;8.90;;;3.67;;
32130;SDS011;18639;50.716;7.086;2022-09-20T07:46:11;8.82;;;3.80;;
32130;SDS011;18639;50.716;7.086;2022-09-20T07:48:37;13.57;;;3.63;;
32130;SDS011;18639;50.716;7.086;2022-09-20T07:51:05;11.77;;;3.75;;
32130;SDS011;18639;50.716;7.086;2022-09-20T07:53:33;8.75;;;3.75;;
32130;SDS011;18639;50.716;7.086;2022-09-20T07:56:07;9.48;;;3.60;;
32130;SDS011;18639;50.716;7.086;2022-09-20T07:58:35;8.32;;;3.58;;
32130;SDS011;18639;50.716;7.086;2022-09-20T08:01:02;7.85;;;3.30;;
32130;SDS011;18639;50.716;7.086;2022-09-20T08:03:30;9.30;;;3.05;;
32130;SDS011;18639;50.716;7.086;2022-09-20T08:06:00;6.35;;;2.70;;
32130;SDS011;18639;50.716;7.086;2022-09-20T08:08:26;6.22;;;2.92;;
32130;SDS011;18639;50.716;7.086;2022-09-20T08:10:53;5.90;;;2.40;;
32130;SDS011;18639;50.716;7.086;2022-09-20T08:13:26;5.75;;;2.13;;
32130;SDS011;18639;50.716;7.086;2022-09-20T08:16:04;6.50;;;1.80;;
32130;SDS011;18639;50.716;7.086;2022-09-20T08:18:31;4.05;;;1.60;;
32130;SDS011;18639;50.716;7.086;2022-09-20T08:21:02;5.47;;;1.75;;
32130;SDS011;18639;50.716;7.086;2022-09-20T08:23:35;4.47;;;1.70;;
32130;SDS011;18639;50.716;7.086;2022-09-20T08:26:01;3.00;;;1.48;;
32130;SDS011;18639;50.716;7.086;2022-09-20T08:28:27;6.57;;;1.60;;
32130;SDS011;18639;50.716;7.086;2022-09-20T08:30:59;6.20;;;1.60;;
32130;SDS011;18639;50.716;7.086;2022-09-20T08:33:27;7.18;;;1.60;;
32130;SDS011;18639;50.716;7.086;2022-09-20T08:35:53;5.65;;;2.10;;
32130;SDS011;18639;50.716;7.086;2022-09-20T08:38:34;3.80;;;1.73;;
32130;SDS011;18639;50.716;7.086;2022-09-20T08:43:33;6.32;;;1.60;;
32130;SDS011;18639;50.716;7.086;2022-09-20T08:46:09;10.43;;;1.60;;
32130;SDS011;18639;50.716;7.086;2022-09-20T08:48:38;4.82;;;1.40;;
32130;SDS011;18639;50.716;7.086;2022-09-20T08:51:04;5.50;;;1.48;;
32130;SDS011;18639;50.716;7.086;2022-09-20T08:53:30;4.07;;;1.67;;
32130;SDS011;18639;50.716;7.086;2022-09-20T08:58:30;6.38;;;1.70;;
32130;SDS011;18639;50.716;7.086;2022-09-20T09:00:55;5.25;;;1.30;;
32130;SDS011;18639;50.716;7.086;2022-09-20T09:03:22;4.13;;;1.58;;
32130;SDS011;18639;50.716;7.086;2022-09-20T09:05:51;4.32;;;1.25;;
32130;SDS011;18639;50.716;7.086;2022-09-20T09:08:23;5.38;;;1.10;;
32130;SDS011;18639;50.716;7.086;2022-09-20T09:11:00;2.53;;;1.15;;
32130;SDS011;18639;50.716;7.086;2022-09-20T09:16:29;3.58;;;1.17;;
32130;SDS011;18639;50.716;7.086;2022-09-20T09:18:56;3.65;;;1.13;;
32130;SDS011;18639;50.716;7.086;2022-09-20T09:23:54;4.57;;;1.25;;
32130;SDS011;18639;50.716;7.086;2022-09-20T09:26:35;2.25;;;0.90;;
32130;SDS011;18639;50.716;7.086;2022-09-20T09:29:19;6.93;;;1.02;;
32130;SDS011;18639;50.716;7.086;2022-09-20T09:31:48;4.85;;;1.38;;
32130;SDS011;18639;50.716;7.086;2022-09-20T09:34:26;4.72;;;0.98;;
32130;SDS011;18639;50.716;7.086;2022-09-20T09:36:53;3.13;;;0.88;;
32130;SDS011;18639;50.716;7.086;2022-09-20T09:39:21;8.15;;;1.00;;
32130;SDS011;18639;50.716;7.086;2022-09-20T09:41:58;6.13;;;0.98;;
32130;SDS011;18639;50.716;7.086;2022-09-20T09:44:26;5.22;;;1.00;;
32130;SDS011;18639;50.716;7.086;2022-09-20T09:46:53;2.30;;;0.80;;
32130;SDS011;18639;50.716;7.086;2022-09-20T09:49:21;2.20;;;0.90;;
32130;SDS011;18639;50.716;7.086;2022-09-20T09:52:02;8.00;;;0.98;;
32130;SDS011;18639;50.716;7.086;2022-09-20T09:54:49;3.17;;;0.95;;
32130;SDS011;18639;50.716;7.086;2022-09-20T09:57:29;4.82;;;1.10;;
32130;SDS011;18639;50.716;7.086;2022-09-20T10:00:23;2.17;;;1.20;;
32130;SDS011;18639;50.716;7.086;2022-09-20T10:05:41;3.60;;;1.25;;
32130;SDS011;18639;50.716;7.086;2022-09-20T10:22:01;3.28;;;1.02;;
32130;SDS011;18639;50.716;7.086;2022-09-20T10:25:13;2.25;;;0.95;;
32130;SDS011;18639;50.716;7.086;2022-09-20T10:30:21;3.83;;;0.93;;
32130;SDS011;18639;50.716;7.086;2022-09-20T10:32:57;1.85;;;0.82;;
32130;SDS011;18639;50.716;7.086;2022-09-20T10:38:44;6.85;;;0.80;;
32130;SDS011;18639;50.716;7.086;2022-09-20T10:47:13;3.20;;;1.23;;
32130;SDS011;18639;50.716;7.086;2022-09-20T10:58:55;3.90;;;1.50;;
32130;SDS011;18639;50.716;7.086;2022-09-20T11:01:29;4.47;;;1.10;;
32130;SDS011;18639;50.716;7.086;2022-09-20T11:07:17;5.57;;;1.30;;
32130;SDS011;18639;50.716;7.086;2022-09-20T11:09:50;4.00;;;1.40;;
32130;SDS011;18639;50.716;7.086;2022-09-20T11:12:35;3.92;;;1.27;;
32130;SDS011;18639;50.716;7.086;2022-09-20T11:15:23;4.25;;;1.00;;
32130;SDS011;18639;50.716;7.086;2022-09-20T11:20:45;6.43;;;1.27;;
32130;SDS011;18639;50.716;7.086;2022-09-20T11:23:21;5.72;;;1.52;;
32130;SDS011;18639;50.716;7.086;2022-09-20T11:25:53;3.47;;;1.27;;
32130;SDS011;18639;50.716;7.086;2022-09-20T11:31:01;3.92;;;1.40;;
32130;SDS011;18639;50.716;7.086;2022-09-20T11:33:36;6.13;;;1.10;;
32130;SDS011;18639;50.716;7.086;2022-09-20T11:36:07;4.13;;;1.05;;
32130;SDS011;18639;50.716;7.086;2022-09-20T11:38:45;6.65;;;0.85;;
32130;SDS011;18639;50.716;7.086;2022-09-20T11:41:20;2.25;;;0.95;;
32130;SDS011;18639;50.716;7.086;2022-09-20T11:43:51;3.40;;;1.00;;
32130;SDS011;18639;50.716;7.086;2022-09-20T11:46:21;0.95;;;0.70;;
32130;SDS011;18639;50.716;7.086;2022-09-20T11:57:26;1.65;;;0.80;;
32130;SDS011;18639;50.716;7.086;2022-09-20T11:59:55;2.67;;;0.77;;
32130;SDS011;18639;50.716;7.086;2022-09-20T12:02:33;2.20;;;0.80;;
32130;SDS011;18639;50.716;7.086;2022-09-20T12:05:05;3.85;;;1.00;;
32130;SDS011;18639;50.716;7.086;2022-09-20T12:07:48;1.63;;;0.70;;
32130;SDS011;18639;50.716;7.086;2022-09-20T12:10:19;1.20;;;0.70;;
32130;SDS011;18639;50.716;7.086;2022-09-20T12:12:48;2.60;;;1.08;;
32130;SDS011;18639;50.716;7.086;2022-09-20T12:15:23;4.00;;;0.77;;
32130;SDS011;18639;50.716;7.086;2022-09-20T12:26:09;8.45;;;1.10;;
32130;SDS011;18639;50.716;7.086;2022-09-20T12:28:56;3.58;;;1.05;;
32130;SDS011;18639;50.716;7.086;2022-09-20T12:36:36;3.67;;;1.02;;
32130;SDS011;18639;50.716;7.086;2022-09-20T12:39:05;1.33;;;1.05;;
32130;SDS011;18639;50.716;7.086;2022-09-20T12:41:50;1.90;;;0.95;;
32130;SDS011;18639;50.716;7.086;2022-09-20T12:44:22;1.42;;;0.98;;
32130;SDS011;18639;50.716;7.086;2022-09-20T12:46:52;7.38;;;1.20;;
32130;SDS011;18639;50.716;7.086;2022-09-20T12:52:19;3.47;;;1.00;;
32130;SDS011;18639;50.716;7.086;2022-09-20T12:55:09;2.83;;;1.23;;
32130;SDS011;18639;50.716;7.086;2022-09-20T12:57:36;2.33;;;1.08;;
32130;SDS011;18639;50.716;7.086;2022-09-20T13:00:04;4.25;;;1.00;;
32130;SDS011;18639;50.716;7.086;2022-09-20T13:05:50;4.85;;;1.33;;
32130;SDS011;18639;50.716;7.086;2022-09-20T13:10:52;4.47;;;1.20;;
32130;SDS011;18639;50.716;7.086;2022-09-20T13:13:29;1.15;;;0.75;;
32130;SDS011;18639;50.716;7.086;2022-09-20T13:16:00;2.08;;;0.70;;
32130;SDS011;18639;50.716;7.086;2022-09-20T13:18:29;7.10;;;1.00;;
32130;SDS011;18639;50.716;7.086;2022-09-20T13:20:55;2.08;;;1.00;;
32130;SDS011;18639;50.716;7.086;2022-09-20T13:23:26;5.30;;;1.08;;
32130;SDS011;18639;50.716;7.086;2022-09-20T13:25:56;3.40;;;0.70;;
32130;SDS011;18639;50.716;7.086;2022-09-20T13:28:27;2.72;;;0.93;;
32130;SDS011;18639;50.716;7.086;2022-09-20T13:33:49;1.95;;;0.60;;
32130;SDS011;18639;50.716;7.086;2022-09-20T13:36:16;2.40;;;0.73;;
32130;SDS011;18639;50.716;7.086;2022-09-20T13:38:49;4.78;;;1.08;;
32130;SDS011;18639;50.716;7.086;2022-09-20T13:41:16;0.95;;;0.70;;
32130;SDS011;18639;50.716;7.086;2022-09-20T13:43:42;2.47;;;0.60;;
32130;SDS011;18639;50.716;7.086;2022-09-20T13:48:40;3.33;;;0.63;;
32130;SDS011;18639;50.716;7.086;2022-09-20T13:56:51;1.40;;;0.75;;
32130;SDS011;18639;50.716;7.086;2022-09-20T13:59:18;1.33;;;0.73;;
32130;SDS011;18639;50.716;7.086;2022-09-20T14:01:47;1.80;;;0.70;;
32130;SDS011;18639;50.716;7.086;2022-09-20T14:04:26;1.85;;;0.68;;
32130;SDS011;18639;50.716;7.086;2022-09-20T14:06:53;4.07;;;0.90;;
32130;SDS011;18639;50.716;7.086;2022-09-20T14:09:29;2.42;;;0.73;;
32130;SDS011;18639;50.716;7.086;2022-09-20T14:12:04;1.67;;;0.70;;
32130;SDS011;18639;50.716;7.086;2022-09-20T14:14:30;0.80;;;0.47;;
32130;SDS011;18639;50.716;7.086;2022-09-20T14:16:58;2.55;;;0.80;;
32130;SDS011;18639;50.716;7.086;2022-09-20T14:19:30;1.75;;;0.73;;
32130;SDS011;18639;50.716;7.086;2022-09-20T14:22:02;1.60;;;0.80;;
32130;SDS011;18639;50.716;7.086;2022-09-20T14:29:45;1.10;;;0.70;;
32130;SDS011;18639;50.716;7.086;2022-09-20T14:37:31;2.30;;;0.57;;
32130;SDS011;18639;50.716;7.086;2022-09-20T14:40:00;3.47;;;0.70;;
32130;SDS011;18639;50.716;7.086;2022-09-20T14:42:45;2.67;;;0.80;;
32130;SDS011;18639;50.716;7.086;2022-09-20T14:45:19;3.70;;;0.60;;
32130;SDS011;18639;50.716;7.086;2022-09-20T14:48:34;3.72;;;0.75;;
32130;SDS011;18639;50.716;7.086;2022-09-20T14:50:37;6.43;;;0.95;;
32130;SDS011;18639;50.716;7.086;2022-09-20T14:55:47;1.70;;;0.60;;
32130;SDS011;18639;50.716;7.086;2022-09-20T14:58:20;2.40;;;0.50;;
32130;SDS011;18639;50.716;7.086;2022-09-20T15:06:00;1.25;;;0.52;;
32130;SDS011;18639;50.716;7.086;2022-09-20T15:08:26;1.58;;;0.80;;
32130;SDS011;18639;50.716;7.086;2022-09-20T15:10:52;1.05;;;0.55;;
32130;SDS011;18639;50.716;7.086;2022-09-20T15:13:17;2.33;;;0.80;;
32130;SDS011;18639;50.716;7.086;2022-09-20T15:15:42;0.82;;;0.57;;
32130;SDS011;18639;50.716;7.086;2022-09-20T15:18:18;5.45;;;0.68;;
32130;SDS011;18639;50.716;7.086;2022-09-20T15:20:49;2.03;;;0.60;;
32130;SDS011;18639;50.716;7.086;2022-09-20T15:23:15;1.48;;;0.70;;
32130;SDS011;18639;50.716;7.086;2022-09-20T15:25:41;2.38;;;0.50;;
32130;SDS011;18639;50.716;7.086;2022-09-20T15:28:08;3.50;;;0.63;;
32130;SDS011;18639;50.716;7.086;2022-09-20T15:30:38;2.65;;;1.08;;
32130;SDS011;18639;50.716;7.086;2022-09-20T15:33:04;0.73;;;0.52;;
32130;SDS011;18639;50.716;7.086;2022-09-20T15:35:29;2.70;;;0.50;;
32130;SDS011;18639;50.716;7.086;2022-09-20T15:37:54;2.15;;;0.70;;
32130;SDS011;18639;50.716;7.086;2022-09-20T15:40:20;1.65;;;0.50;;
32130;SDS011;18639;50.716;7.086;2022-09-20T15:42:45;1.95;;;0.60;;
32130;SDS011;18639;50.716;7.086;2022-09-20T15:45:11;2.63;;;0.57;;
32130;SDS011;18639;50.716;7.086;2022-09-20T15:47:39;0.98;;;0.55;;
32130;SDS011;18639;50.716;7.086;2022-09-20T15:50:05;2.85;;;0.73;;
32130;SDS011;18639;50.716;7.086;2022-09-20T15:52:35;1.15;;;0.60;;
32130;SDS011;18639;50.716;7.086;2022-09-20T15:55:05;1.45;;;0.63;;
32130;SDS011;18639;50.716;7.086;2022-09-20T15:57:31;1.13;;;0.75;;
32130;SDS011;18639;50.716;7.086;2022-09-20T15:59:56;3.97;;;0.73;;
32130;SDS011;18639;50.716;7.086;2022-09-20T16:02:23;3.67;;;0.80;;
32130;SDS011;18639;50.716;7.086;2022-09-20T16:04:49;3.50;;;0.70;;
32130;SDS011;18639;50.716;7.086;2022-09-20T16:07:18;1.50;;;0.63;;
32130;SDS011;18639;50.716;7.086;2022-09-20T16:09:49;3.30;;;0.73;;
32130;SDS011;18639;50.716;7.086;2022-09-20T16:12:15;2.53;;;0.75;;
32130;SDS011;18639;50.716;7.086;2022-09-20T16:14:40;1.88;;;0.70;;
32130;SDS011;18639;50.716;7.086;2022-09-20T16:17:05;1.92;;;0.73;;
32130;SDS011;18639;50.716;7.086;2022-09-20T16:19:30;0.85;;;0.60;;
32130;SDS011;18639;50.716;7.086;2022-09-20T16:21:56;2.88;;;0.73;;
32130;SDS011;18639;50.716;7.086;2022-09-20T16:24:22;3.20;;;0.90;;
32130;SDS011;18639;50.716;7.086;2022-09-20T16:26:49;3.38;;;0.75;;
32130;SDS011;18639;50.716;7.086;2022-09-20T16:29:15;3.42;;;0.80;;
32130;SDS011;18639;50.716;7.086;2022-09-20T16:31:45;2.20;;;0.70;;
32130;SDS011;18639;50.716;7.086;2022-09-20T16:34:21;6.88;;;0.90;;
32130;SDS011;18639;50.716;7.086;2022-09-20T16:36:52;4.60;;;0.77;;
32130;SDS011;18639;50.716;7.086;2022-09-20T16:39:20;1.38;;;0.85;;
32130;SDS011;18639;50.716;7.086;2022-09-20T16:41:51;3.63;;;0.80;;
32130;SDS011;18639;50.716;7.086;2022-09-20T16:44:18;3.00;;;0.77;;
32130;SDS011;18639;50.716;7.086;2022-09-20T16:46:43;1.33;;;0.55;;
32130;SDS011;18639;50.716;7.086;2022-09-20T16:49:09;4.20;;;0.70;;
32130;SDS011;18639;50.716;7.086;2022-09-20T16:51:38;0.93;;;0.70;;
32130;SDS011;18639;50.716;7.086;2022-09-20T16:54:05;4.05;;;1.20;;
32130;SDS011;18639;50.716;7.086;2022-09-20T16:56:34;2.88;;;0.80;;
32130;SDS011;18639;50.716;7.086;2022-09-20T16:59:00;1.42;;;0.70;;
32130;SDS011;18639;50.716;7.086;2022-09-20T17:01:26;2.28;;;0.75;;
32130;SDS011;18639;50.716;7.086;2022-09-20T17:03:52;4.28;;;0.95;;
32130;SDS011;18639;50.716;7.086;2022-09-20T17:06:18;5.32;;;1.20;;
32130;SDS011;18639;50.716;7.086;2022-09-20T17:08:44;3.53;;;0.90;;
32130;SDS011;18639;50.716;7.086;2022-09-20T17:11:13;1.10;;;0.90;;
32130;SDS011;18639;50.716;7.086;2022-09-20T17:13:45;1.77;;;0.70;;
32130;SDS011;18639;50.716;7.086;2022-09-20T17:16:12;1.63;;;1.00;;
32130;SDS011;18639;50.716;7.086;2022-09-20T17:18:41;1.20;;;0.90;;
32130;SDS011;18639;50.716;7.086;2022-09-20T17:21:08;2.85;;;1.00;;
32130;SDS011;18639;50.716;7.086;2022-09-20T17:23:37;10.32;;;1.17;;
32130;SDS011;18639;50.716;7.086;2022-09-20T17:26:06;5.10;;;1.00;;
32130;SDS011;18639;50.716;7.086;2022-09-20T17:28:43;2.50;;;1.10;;
32130;SDS011;18639;50.716;7.086;2022-09-20T17:31:11;1.73;;;0.88;;
32130;SDS011;18639;50.716;7.086;2022-09-20T17:33:38;3.40;;;1.55;;
32130;SDS011;18639;50.716;7.086;2022-09-20T17:36:05;1.40;;;1.02;;
32130;SDS011;18639;50.716;7.086;2022-09-20T17:38:32;6.70;;;1.05;;
32130;SDS011;18639;50.716;7.086;2022-09-20T17:40:59;2.70;;;1.20;;
32130;SDS011;18639;50.716;7.086;2022-09-20T17:43:26;4.55;;;0.93;;
32130;SDS011;18639;50.716;7.086;2022-09-20T17:45:53;2.90;;;1.40;;
32130;SDS011;18639;50.716;7.086;2022-09-20T17:48:20;8.88;;;1.52;;
32130;SDS011;18639;50.716;7.086;2022-09-20T17:50:54;2.90;;;1.30;;
32130;SDS011;18639;50.716;7.086;2022-09-20T17:53:20;4.05;;;1.42;;
32130;SDS011;18639;50.716;7.086;2022-09-20T17:55:52;4.60;;;1.10;;
32130;SDS011;18639;50.716;7.086;2022-09-20T17:58:19;2.80;;;1.25;;
32130;SDS011;18639;50.716;7.086;2022-09-20T18:00:44;8.20;;;1.38;;
32130;SDS011;18639;50.716;7.086;2022-09-20T18:03:09;4.35;;;1.30;;
32130;SDS011;18639;50.716;7.086;2022-09-20T18:05:35;2.28;;;1.10;;
32130;SDS011;18639;50.716;7.086;2022-09-20T18:08:00;4.10;;;1.25;;
32130;SDS011;18639;50.716;7.086;2022-09-20T18:10:27;5.15;;;1.38;;
32130;SDS011;18639;50.716;7.086;2022-09-20T18:12:52;2.78;;;1.40;;
32130;SDS011;18639;50.716;7.086;2022-09-20T18:15:18;3.10;;;1.30;;
32130;SDS011;18639;50.716;7.086;2022-09-20T18:17:45;4.10;;;1.20;;
32130;SDS011;18639;50.716;7.086;2022-09-20T18:20:11;3.13;;;1.50;;
32130;SDS011;18639;50.716;7.086;2022-09-20T18:22:36;3.63;;;1.38;;
32130;SDS011;18639;50.716;7.086;2022-09-20T18:25:02;6.90;;;1.23;;
32130;SDS011;18639;50.716;7.086;2022-09-20T18:27:28;7.40;;;1.98;;
32130;SDS011;18639;50.716;7.086;2022-09-20T18:29:54;6.68;;;1.40;;
32130;SDS011;18639;50.716;7.086;2022-09-20T18:32:19;2.80;;;1.05;;
32130;SDS011;18639;50.716;7.086;2022-09-20T18:34:45;5.20;;;1.30;;
32130;SDS011;18639;50.716;7.086;2022-09-20T18:37:15;2.20;;;1.00;;
32130;SDS011;18639;50.716;7.086;2022-09-20T18:39:41;2.72;;;1.25;;
32130;SDS011;18639;50.716;7.086;2022-09-20T18:42:07;7.45;;;1.23;;
32130;SDS011;18639;50.716;7.086;2022-09-20T18:44:33;3.38;;;1.00;;
32130;SDS011;18639;50.716;7.086;2022-09-20T18:46:59;4.25;;;1.00;;
32130;SDS011;18639;50.716;7.086;2022-09-20T18:49:27;2.30;;;1.10;;
32130;SDS011;18639;50.716;7.086;2022-09-20T18:51:54;4.40;;;1.35;;
32130;SDS011;18639;50.716;7.086;2022-09-20T18:54:20;2.25;;;0.90;;
32130;SDS011;18639;50.716;7.086;2022-09-20T18:56:49;5.50;;;1.17;;
32130;SDS011;18639;50.716;7.086;2022-09-20T18:59:16;3.38;;;0.90;;
32130;SDS011;18639;50.716;7.086;2022-09-20T19:01:48;5.60;;;1.02;;
32130;SDS011;18639;50.716;7.086;2022-09-20T19:10:09;1.13;;;0.88;;
32130;SDS011;18639;50.716;7.086;2022-09-20T19:12:39;2.17;;;0.95;;
32130;SDS011;18639;50.716;7.086;2022-09-20T19:23:50;10.98;;;1.30;;
32130;SDS011;18639;50.716;7.086;2022-09-20T19:26:30;4.25;;;0.95;;
32130;SDS011;18639;50.716;7.086;2022-09-20T19:28:58;5.18;;;1.10;;
32130;SDS011;18639;50.716;7.086;2022-09-20T19:33:54;4.22;;;1.30;;
32130;SDS011;18639;50.716;7.086;2022-09-20T19:36:22;2.47;;;1.27;;
32130;SDS011;18639;50.716;7.086;2022-09-20T19:38:57;4.05;;;1.27;;
32130;SDS011;18639;50.716;7.086;2022-09-20T19:41:44;2.20;;;1.02;;
32130;SDS011;18639;50.716;7.086;2022-09-20T19:47:09;5.05;;;1.13;;
32130;SDS011;18639;50.716;7.086;2022-09-20T19:50:06;7.15;;;1.42;;
32130;SDS011;18639;50.716;7.086;2022-09-20T19:52:40;2.70;;;1.27;;
32130;SDS011;18639;50.716;7.086;2022-09-20T19:55:08;2.42;;;1.20;;
32130;SDS011;18639;50.716;7.086;2022-09-20T19:57:42;4.47;;;1.25;;
32130;SDS011;18639;50.716;7.086;2022-09-20T20:00:11;4.90;;;1.40;;
32130;SDS011;18639;50.716;7.086;2022-09-20T20:02:39;3.03;;;1.40;;
32130;SDS011;18639;50.716;7.086;2022-09-20T20:05:05;9.18;;;1.95;;
32130;SDS011;18639;50.716;7.086;2022-09-20T20:07:33;7.15;;;1.98;;
32130;SDS011;18639;50.716;7.086;2022-09-20T20:10:11;3.60;;;1.88;;
32130;SDS011;18639;50.716;7.086;2022-09-20T20:12:58;7.13;;;2.03;;
32130;SDS011;18639;50.716;7.086;2022-09-20T20:15:52;6.07;;;1.90;;
32130;SDS011;18639;50.716;7.086;2022-09-20T20:21:25;6.10;;;2.13;;
32130;SDS011;18639;50.716;7.086;2022-09-20T20:26:31;7.85;;;2.80;;
32130;SDS011;18639;50.716;7.086;2022-09-20T20:28:56;11.80;;;3.05;;
32130;SDS011;18639;50.716;7.086;2022-09-20T20:31:22;14.07;;;4.00;;
32130;SDS011;18639;50.716;7.086;2022-09-20T20:33:47;12.35;;;3.22;;